KCRW

Yeager Airport

Airport
ICAO code
KCRW
IATA Code
CRW
Summary
ICAO Region
NAM
ICAO Territory
Location

Charleston, West Virginia

Serving
Charleston
Elevation
981 ft
Coordinates
38° 22' 14" N , 81° 35' 46" W
KCC
Airport RE
Engineered Materials Arresting System
Airport WX
Cumulonimbus
Metar
KCRW 222054Z 27004KT 10SM BKN050 OVC110 17/05 A2963 RMK AO2 RAB03E16 SLP030 P0000 60000 T01720050 56026

Description

West Virginia International Yeager Airport is a joint use civil-military public airport located 3 nm east of the central business district of Charleston, a city in Kanawha County, West Virginia, USA. It is co-located with McLaughlin Air National Guard Base.

Airport map

Aerial View

Airport accidents

SKYbrary Partners:

Safety knowledge contributed by: